Terminal Aerodrome Forecast
Issued by NWS Tampa Bay Area, FL

Home | Current Version | Previous Version | Text Only | Print | Product List | Glossary On
Versions: 1 2 3 4 5 6 7 8 9 10 11 12 13 14 15 16 17 18
000
FTUS42 KTBW 161100
TAFSRQ
TAF
KSRQ 161134Z 1612/1712 34010KT P6SM BKN020
     FM161600 05012G20KT P6SM SCT250
     FM170200 07011KT P6SM BKN025=

USA.gov is the U.S. government's official web portal to all federal, state and local government web resources and services.